sensor_id;sensor_type;location;lat;lon;timestamp;pressure;altitude;pressure_sealevel;temperature;humidity
28588;BME280;15787;49.662;10.162;2023-05-06T00:00:20;99085.91;;;13.19;100.00
28588;BME280;15787;49.662;10.162;2023-05-06T00:02:55;99082.88;;;13.26;100.00
28588;BME280;15787;49.662;10.162;2023-05-06T00:05:28;99087.34;;;13.11;100.00
28588;BME280;15787;49.662;10.162;2023-05-06T00:08:01;99079.38;;;13.22;100.00
28588;BME280;15787;49.662;10.162;2023-05-06T00:10:35;99087.44;;;13.46;100.00
28588;BME280;15787;49.662;10.162;2023-05-06T00:13:08;99069.63;;;13.52;100.00
28588;BME280;15787;49.662;10.162;2023-05-06T00:15:42;99065.13;;;13.55;100.00
28588;BME280;15787;49.662;10.162;2023-05-06T00:18:16;99055.47;;;13.56;100.00
28588;BME280;15787;49.662;10.162;2023-05-06T00:20:53;99055.31;;;13.72;100.00
28588;BME280;15787;49.662;10.162;2023-05-06T00:23:27;99057.34;;;13.71;100.00
28588;BME280;15787;49.662;10.162;2023-05-06T00:26:02;99044.97;;;13.81;100.00
28588;BME280;15787;49.662;10.162;2023-05-06T00:28:36;99050.50;;;13.72;100.00
28588;BME280;15787;49.662;10.162;2023-05-06T00:31:10;99049.28;;;14.08;100.00
28588;BME280;15787;49.662;10.162;2023-05-06T00:33:45;99061.94;;;13.78;100.00
28588;BME280;15787;49.662;10.162;2023-05-06T00:36:18;99051.13;;;13.89;100.00
28588;BME280;15787;49.662;10.162;2023-05-06T00:38:52;99056.63;;;13.92;100.00
28588;BME280;15787;49.662;10.162;2023-05-06T00:41:30;99060.53;;;13.95;100.00
28588;BME280;15787;49.662;10.162;2023-05-06T00:44:03;99059.09;;;13.90;100.00
28588;BME280;15787;49.662;10.162;2023-05-06T00:46:37;99063.94;;;13.90;100.00
28588;BME280;15787;49.662;10.162;2023-05-06T00:49:12;99069.63;;;13.99;100.00
28588;BME280;15787;49.662;10.162;2023-05-06T00:51:46;99065.47;;;13.91;100.00
28588;BME280;15787;49.662;10.162;2023-05-06T00:54:20;99071.22;;;13.87;100.00
28588;BME280;15787;49.662;10.162;2023-05-06T00:56:54;99070.31;;;14.03;100.00
28588;BME280;15787;49.662;10.162;2023-05-06T00:59:27;99069.28;;;13.97;100.00
28588;BME280;15787;49.662;10.162;2023-05-06T01:02:01;99065.94;;;13.89;100.00
28588;BME280;15787;49.662;10.162;2023-05-06T01:04:36;99063.25;;;13.86;100.00
28588;BME280;15787;49.662;10.162;2023-05-06T01:07:22;99065.94;;;13.89;100.00
28588;BME280;15787;49.662;10.162;2023-05-06T01:10:06;99060.47;;;13.73;100.00
28588;BME280;15787;49.662;10.162;2023-05-06T01:12:49;99060.47;;;13.73;100.00
28588;BME280;15787;49.662;10.162;2023-05-06T01:15:31;99058.28;;;13.43;100.00
28588;BME280;15787;49.662;10.162;2023-05-06T01:18:09;99055.75;;;13.70;100.00
28588;BME280;15787;49.662;10.162;2023-05-06T01:20:46;99063.31;;;13.36;100.00
28588;BME280;15787;49.662;10.162;2023-05-06T01:23:22;99058.97;;;13.22;100.00
28588;BME280;15787;49.662;10.162;2023-05-06T01:25:56;99057.72;;;13.23;100.00
28588;BME280;15787;49.662;10.162;2023-05-06T01:28:29;99052.31;;;13.54;100.00
28588;BME280;15787;49.662;10.162;2023-05-06T01:31:07;99062.91;;;13.37;100.00
28588;BME280;15787;49.662;10.162;2023-05-06T01:33:49;99059.06;;;13.44;100.00
28588;BME280;15787;49.662;10.162;2023-05-06T01:36:31;99058.97;;;13.35;100.00
28588;BME280;15787;49.662;10.162;2023-05-06T01:39:15;99064.03;;;13.40;100.00
28588;BME280;15787;49.662;10.162;2023-05-06T01:41:50;99056.03;;;13.51;100.00
28588;BME280;15787;49.662;10.162;2023-05-06T01:44:26;99051.78;;;13.46;100.00
28588;BME280;15787;49.662;10.162;2023-05-06T01:47:01;99062.09;;;13.37;100.00
28588;BME280;15787;49.662;10.162;2023-05-06T01:49:39;99046.16;;;13.59;100.00
28588;BME280;15787;49.662;10.162;2023-05-06T01:52:14;99047.00;;;13.68;100.00
28588;BME280;15787;49.662;10.162;2023-05-06T01:54:49;99048.75;;;13.41;100.00
28588;BME280;15787;49.662;10.162;2023-05-06T01:57:23;99045.03;;;13.44;100.00
28588;BME280;15787;49.662;10.162;2023-05-06T01:59:57;99046.72;;;13.54;100.00
28588;BME280;15787;49.662;10.162;2023-05-06T02:02:30;99048.84;;;13.50;100.00
28588;BME280;15787;49.662;10.162;2023-05-06T02:05:05;99047.75;;;13.47;100.00
28588;BME280;15787;49.662;10.162;2023-05-06T02:07:43;99050.41;;;13.51;100.00
28588;BME280;15787;49.662;10.162;2023-05-06T02:10:18;99054.31;;;13.66;100.00
28588;BME280;15787;49.662;10.162;2023-05-06T02:12:59;99056.22;;;13.69;100.00
28588;BME280;15787;49.662;10.162;2023-05-06T02:15:33;99054.56;;;13.59;100.00
28588;BME280;15787;49.662;10.162;2023-05-06T02:18:07;99053.31;;;13.72;100.00
28588;BME280;15787;49.662;10.162;2023-05-06T02:20:41;99052.63;;;13.68;100.00
28588;BME280;15787;49.662;10.162;2023-05-06T02:23:18;99055.06;;;13.79;100.00
28588;BME280;15787;49.662;10.162;2023-05-06T02:25:59;99050.78;;;13.87;100.00
28588;BME280;15787;49.662;10.162;2023-05-06T02:28:34;99054.78;;;13.99;100.00
28588;BME280;15787;49.662;10.162;2023-05-06T02:31:07;99056.53;;;13.83;100.00
28588;BME280;15787;49.662;10.162;2023-05-06T02:33:42;99058.19;;;13.93;100.00
28588;BME280;15787;49.662;10.162;2023-05-06T02:36:17;99054.34;;;14.00;100.00
28588;BME280;15787;49.662;10.162;2023-05-06T02:38:51;99060.03;;;14.09;100.00
28588;BME280;15787;49.662;10.162;2023-05-06T02:41:28;99061.84;;;14.16;100.00
28588;BME280;15787;49.662;10.162;2023-05-06T02:44:04;99060.09;;;13.97;100.00
28588;BME280;15787;49.662;10.162;2023-05-06T02:46:41;99063.06;;;13.68;100.00
28588;BME280;15787;49.662;10.162;2023-05-06T02:49:19;99055.63;;;13.86;100.00
28588;BME280;15787;49.662;10.162;2023-05-06T02:51:55;99046.78;;;13.63;100.00
28588;BME280;15787;49.662;10.162;2023-05-06T02:54:30;99038.47;;;13.84;100.00
28588;BME280;15787;49.662;10.162;2023-05-06T02:57:07;99045.91;;;13.66;100.00
28588;BME280;15787;49.662;10.162;2023-05-06T02:59:45;99058.00;;;13.75;100.00
28588;BME280;15787;49.662;10.162;2023-05-06T03:02:25;99051.41;;;13.69;100.00
28588;BME280;15787;49.662;10.162;2023-05-06T03:05:01;99064.41;;;13.76;100.00
28588;BME280;15787;49.662;10.162;2023-05-06T03:07:38;99053.75;;;13.58;100.00
28588;BME280;15787;49.662;10.162;2023-05-06T03:10:12;99057.03;;;13.57;100.00
28588;BME280;15787;49.662;10.162;2023-05-06T03:12:50;99065.13;;;13.55;100.00
28588;BME280;15787;49.662;10.162;2023-05-06T03:15:23;99062.09;;;13.49;100.00
28588;BME280;15787;49.662;10.162;2023-05-06T03:17:57;99063.44;;;13.57;100.00
28588;BME280;15787;49.662;10.162;2023-05-06T03:20:32;99077.34;;;13.48;100.00
28588;BME280;15787;49.662;10.162;2023-05-06T03:23:07;99073.66;;;13.26;100.00
28588;BME280;15787;49.662;10.162;2023-05-06T03:25:41;99084.88;;;13.39;100.00
28588;BME280;15787;49.662;10.162;2023-05-06T03:28:17;99080.63;;;13.21;100.00
28588;BME280;15787;49.662;10.162;2023-05-06T03:30:53;99070.66;;;12.79;100.00
28588;BME280;15787;49.662;10.162;2023-05-06T03:33:26;99073.75;;;13.10;100.00
28588;BME280;15787;49.662;10.162;2023-05-06T03:36:00;99075.00;;;13.09;100.00
28588;BME280;15787;49.662;10.162;2023-05-06T03:38:33;99078.97;;;12.95;100.00
28588;BME280;15787;49.662;10.162;2023-05-06T03:41:11;99077.06;;;12.92;100.00
28588;BME280;15787;49.662;10.162;2023-05-06T03:43:46;99076.28;;;12.92;100.00
28588;BME280;15787;49.662;10.162;2023-05-06T03:46:22;99076.38;;;12.76;100.00
28588;BME280;15787;49.662;10.162;2023-05-06T03:49:00;99080.66;;;12.51;100.00
28588;BME280;15787;49.662;10.162;2023-05-06T03:51:34;99076.91;;;12.58;100.00
28588;BME280;15787;49.662;10.162;2023-05-06T03:54:08;99082.03;;;12.59;100.00
28588;BME280;15787;49.662;10.162;2023-05-06T03:56:41;99075.47;;;12.66;100.00
28588;BME280;15787;49.662;10.162;2023-05-06T03:59:17;99080.63;;;12.39;100.00
28588;BME280;15787;49.662;10.162;2023-05-06T04:01:51;99083.97;;;12.62;100.00
28588;BME280;15787;49.662;10.162;2023-05-06T04:04:25;99082.50;;;12.58;100.00
28588;BME280;15787;49.662;10.162;2023-05-06T04:07:00;99084.75;;;12.63;100.00
28588;BME280;15787;49.662;10.162;2023-05-06T04:09:34;99084.25;;;12.52;100.00
28588;BME280;15787;49.662;10.162;2023-05-06T04:12:11;99095.75;;;12.41;100.00
28588;BME280;15787;49.662;10.162;2023-05-06T04:14:46;99092.38;;;12.34;100.00
28588;BME280;15787;49.662;10.162;2023-05-06T04:17:20;99098.81;;;12.47;100.00
28588;BME280;15787;49.662;10.162;2023-05-06T04:19:53;99097.94;;;12.50;100.00
28588;BME280;15787;49.662;10.162;2023-05-06T04:22:27;99100.50;;;12.28;100.00
28588;BME280;15787;49.662;10.162;2023-05-06T04:25:01;99105.41;;;12.40;100.00
28588;BME280;15787;49.662;10.162;2023-05-06T04:27:36;99099.75;;;12.28;100.00
28588;BME280;15787;49.662;10.162;2023-05-06T04:30:13;99104.63;;;12.24;100.00
28588;BME280;15787;49.662;10.162;2023-05-06T04:32:46;99107.69;;;12.29;100.00
28588;BME280;15787;49.662;10.162;2023-05-06T04:35:20;99111.00;;;12.40;100.00
28588;BME280;15787;49.662;10.162;2023-05-06T04:37:54;99114.22;;;12.39;100.00
28588;BME280;15787;49.662;10.162;2023-05-06T04:40:33;99111.72;;;12.28;100.00
28588;BME280;15787;49.662;10.162;2023-05-06T04:43:07;99112.97;;;12.27;100.00
28588;BME280;15787;49.662;10.162;2023-05-06T04:45:42;99113.63;;;12.31;100.00
28588;BME280;15787;49.662;10.162;2023-05-06T04:48:23;99114.41;;;12.48;100.00
28588;BME280;15787;49.662;10.162;2023-05-06T04:51:00;99113.22;;;12.33;100.00
28588;BME280;15787;49.662;10.162;2023-05-06T04:53:35;99113.22;;;12.33;100.00
28588;BME280;15787;49.662;10.162;2023-05-06T04:56:08;99111.81;;;12.25;100.00
28588;BME280;15787;49.662;10.162;2023-05-06T04:58:41;99116.06;;;12.00;100.00
28588;BME280;15787;49.662;10.162;2023-05-06T05:01:15;99118.50;;;11.66;100.00
28588;BME280;15787;49.662;10.162;2023-05-06T05:03:49;99120.25;;;12.09;100.00
28588;BME280;15787;49.662;10.162;2023-05-06T05:06:24;99120.50;;;11.66;100.00
28588;BME280;15787;49.662;10.162;2023-05-06T05:08:57;99114.16;;;11.81;100.00
28588;BME280;15787;49.662;10.162;2023-05-06T05:11:31;99111.44;;;11.94;100.00
28588;BME280;15787;49.662;10.162;2023-05-06T05:14:04;99120.84;;;12.16;100.00
28588;BME280;15787;49.662;10.162;2023-05-06T05:16:39;99121.75;;;12.42;100.00
28588;BME280;15787;49.662;10.162;2023-05-06T05:19:13;99115.50;;;12.22;100.00
28588;BME280;15787;49.662;10.162;2023-05-06T05:21:46;99112.13;;;12.43;100.00
28588;BME280;15787;49.662;10.162;2023-05-06T05:24:21;99108.66;;;12.80;100.00
28588;BME280;15787;49.662;10.162;2023-05-06T05:26:54;99112.25;;;12.81;100.00
28588;BME280;15787;49.662;10.162;2023-05-06T05:29:28;99119.78;;;12.84;100.00
28588;BME280;15787;49.662;10.162;2023-05-06T05:32:04;99113.94;;;13.19;100.00
28588;BME280;15787;49.662;10.162;2023-05-06T05:34:39;99118.59;;;13.10;100.00
28588;BME280;15787;49.662;10.162;2023-05-06T05:37:12;99130.00;;;13.03;100.00
28588;BME280;15787;49.662;10.162;2023-05-06T05:39:45;99135.03;;;12.95;100.00
28588;BME280;15787;49.662;10.162;2023-05-06T05:42:19;99124.38;;;12.90;100.00
28588;BME280;15787;49.662;10.162;2023-05-06T05:44:53;99131.91;;;12.93;100.00
28588;BME280;15787;49.662;10.162;2023-05-06T05:47:27;99129.50;;;13.08;100.00
28588;BME280;15787;49.662;10.162;2023-05-06T05:50:00;99122.53;;;13.25;100.00
28588;BME280;15787;49.662;10.162;2023-05-06T05:52:33;99130.16;;;13.12;100.00
28588;BME280;15787;49.662;10.162;2023-05-06T05:55:08;99137.81;;;13.11;100.00
28588;BME280;15787;49.662;10.162;2023-05-06T05:57:43;99125.50;;;13.34;100.00
28588;BME280;15787;49.662;10.162;2023-05-06T06:00:17;99128.63;;;13.36;100.00
28588;BME280;15787;49.662;10.162;2023-05-06T06:02:51;99129.50;;;13.71;100.00
28588;BME280;15787;49.662;10.162;2023-05-06T06:05:24;99141.41;;;13.75;100.00
28588;BME280;15787;49.662;10.162;2023-05-06T06:07:57;99141.50;;;13.97;100.00
28588;BME280;15787;49.662;10.162;2023-05-06T06:10:34;99153.41;;;13.75;100.00
28588;BME280;15787;49.662;10.162;2023-05-06T06:13:13;99145.41;;;13.99;100.00
28588;BME280;15787;49.662;10.162;2023-05-06T06:15:46;99156.25;;;14.35;100.00
28588;BME280;15787;49.662;10.162;2023-05-06T06:18:20;99165.44;;;14.48;100.00
28588;BME280;15787;49.662;10.162;2023-05-06T06:20:53;99169.25;;;14.54;100.00
28588;BME280;15787;49.662;10.162;2023-05-06T06:23:27;99172.53;;;14.74;100.00
28588;BME280;15787;49.662;10.162;2023-05-06T06:26:01;99175.22;;;14.99;100.00
28588;BME280;15787;49.662;10.162;2023-05-06T06:28:36;99179.13;;;14.80;100.00
28588;BME280;15787;49.662;10.162;2023-05-06T06:31:09;99178.03;;;14.78;100.00
28588;BME280;15787;49.662;10.162;2023-05-06T06:33:43;99185.22;;;15.00;100.00
28588;BME280;15787;49.662;10.162;2023-05-06T06:36:16;99184.72;;;15.14;100.00
28588;BME280;15787;49.662;10.162;2023-05-06T06:38:49;99179.00;;;15.05;100.00
28588;BME280;15787;49.662;10.162;2023-05-06T06:41:22;99183.00;;;15.17;100.00
28588;BME280;15787;49.662;10.162;2023-05-06T06:43:55;99181.22;;;15.10;100.00
28588;BME280;15787;49.662;10.162;2023-05-06T06:46:32;99181.44;;;15.16;100.00
28588;BME280;15787;49.662;10.162;2023-05-06T06:49:06;99183.38;;;15.28;100.00
28588;BME280;15787;49.662;10.162;2023-05-06T06:51:39;99177.22;;;15.42;100.00
28588;BME280;15787;49.662;10.162;2023-05-06T06:54:12;99187.34;;;15.61;100.00
28588;BME280;15787;49.662;10.162;2023-05-06T06:56:44;99177.28;;;15.82;100.00
28588;BME280;15787;49.662;10.162;2023-05-06T06:59:17;99184.47;;;15.83;100.00
28588;BME280;15787;49.662;10.162;2023-05-06T07:01:50;99180.19;;;16.09;100.00
28588;BME280;15787;49.662;10.162;2023-05-06T07:04:24;99193.00;;;16.01;100.00
28588;BME280;15787;49.662;10.162;2023-05-06T07:06:58;99191.16;;;16.16;100.00
28588;BME280;15787;49.662;10.162;2023-05-06T07:09:31;99195.75;;;16.32;100.00
28588;BME280;15787;49.662;10.162;2023-05-06T07:12:06;99207.34;;;16.34;100.00
28588;BME280;15787;49.662;10.162;2023-05-06T07:14:39;99199.28;;;16.72;100.00
28588;BME280;15787;49.662;10.162;2023-05-06T07:17:12;99205.31;;;16.43;99.71
28588;BME280;15787;49.662;10.162;2023-05-06T07:19:46;99203.19;;;16.84;100.00
28588;BME280;15787;49.662;10.162;2023-05-06T07:22:19;99208.03;;;16.83;98.03
28588;BME280;15787;49.662;10.162;2023-05-06T07:24:52;99204.28;;;17.04;96.19
28588;BME280;15787;49.662;10.162;2023-05-06T07:27:25;99209.91;;;17.04;96.24
28588;BME280;15787;49.662;10.162;2023-05-06T07:30:00;99213.81;;;17.25;95.08
28588;BME280;15787;49.662;10.162;2023-05-06T07:32:33;99215.06;;;17.24;93.66
28588;BME280;15787;49.662;10.162;2023-05-06T07:35:08;99219.28;;;17.56;93.94
28588;BME280;15787;49.662;10.162;2023-05-06T07:37:41;99219.25;;;17.65;94.22
28588;BME280;15787;49.662;10.162;2023-05-06T07:40:14;99212.56;;;17.17;93.76
28588;BME280;15787;49.662;10.162;2023-05-06T07:42:47;99221.66;;;17.30;91.34
28588;BME280;15787;49.662;10.162;2023-05-06T07:45:20;99216.00;;;17.30;92.70
28588;BME280;15787;49.662;10.162;2023-05-06T07:47:55;99226.91;;;17.74;90.93
28588;BME280;15787;49.662;10.162;2023-05-06T07:50:30;99221.31;;;17.55;91.30
28588;BME280;15787;49.662;10.162;2023-05-06T07:53:03;99218.25;;;17.77;89.52
28588;BME280;15787;49.662;10.162;2023-05-06T07:55:36;99222.72;;;17.42;89.03
28588;BME280;15787;49.662;10.162;2023-05-06T07:58:09;99223.84;;;17.17;89.07
28588;BME280;15787;49.662;10.162;2023-05-06T08:00:42;99224.16;;;17.37;88.85
28588;BME280;15787;49.662;10.162;2023-05-06T08:03:14;99238.56;;;17.66;88.08
28588;BME280;15787;49.662;10.162;2023-05-06T08:05:50;99229.47;;;18.04;86.21
28588;BME280;15787;49.662;10.162;2023-05-06T08:08:23;99239.41;;;18.33;84.89
28588;BME280;15787;49.662;10.162;2023-05-06T08:10:58;99232.38;;;17.86;86.05
28588;BME280;15787;49.662;10.162;2023-05-06T08:13:31;99232.81;;;18.26;84.73
28588;BME280;15787;49.662;10.162;2023-05-06T08:16:05;99241.53;;;18.14;84.66
28588;BME280;15787;49.662;10.162;2023-05-06T08:18:38;99251.78;;;18.35;84.95
28588;BME280;15787;49.662;10.162;2023-05-06T08:21:12;99241.13;;;18.63;83.93
28588;BME280;15787;49.662;10.162;2023-05-06T08:23:45;99256.03;;;18.87;80.15
28588;BME280;15787;49.662;10.162;2023-05-06T08:26:18;99255.84;;;18.43;81.11
28588;BME280;15787;49.662;10.162;2023-05-06T08:28:51;99256.28;;;18.42;81.60
28588;BME280;15787;49.662;10.162;2023-05-06T08:31:26;99250.56;;;18.60;79.54
28588;BME280;15787;49.662;10.162;2023-05-06T08:33:59;99251.66;;;18.86;80.13
28588;BME280;15787;49.662;10.162;2023-05-06T08:36:33;99254.00;;;18.64;82.24
28588;BME280;15787;49.662;10.162;2023-05-06T08:39:06;99249.94;;;19.03;80.69
28588;BME280;15787;49.662;10.162;2023-05-06T08:41:40;99263.50;;;18.52;82.22
28588;BME280;15787;49.662;10.162;2023-05-06T08:44:14;99261.66;;;18.40;81.60
28588;BME280;15787;49.662;10.162;2023-05-06T08:46:49;99248.16;;;18.67;81.86
28588;BME280;15787;49.662;10.162;2023-05-06T08:49:22;99249.63;;;18.63;82.13
28588;BME280;15787;49.662;10.162;2023-05-06T08:51:56;99255.22;;;18.39;81.68
28588;BME280;15787;49.662;10.162;2023-05-06T08:54:32;99250.88;;;18.85;82.35
28588;BME280;15787;49.662;10.162;2023-05-06T08:57:10;99254.50;;;19.24;78.99
28588;BME280;15787;49.662;10.162;2023-05-06T08:59:43;99251.63;;;19.10;77.78
28588;BME280;15787;49.662;10.162;2023-05-06T09:02:17;99249.78;;;18.59;78.19
28588;BME280;15787;49.662;10.162;2023-05-06T09:04:51;99264.59;;;18.54;74.80
28588;BME280;15787;49.662;10.162;2023-05-06T09:07:26;99256.81;;;18.87;78.98
28588;BME280;15787;49.662;10.162;2023-05-06T09:09:59;99256.94;;;19.31;75.91
28588;BME280;15787;49.662;10.162;2023-05-06T09:12:35;99255.56;;;19.27;78.25
28588;BME280;15787;49.662;10.162;2023-05-06T09:15:09;99253.56;;;19.86;78.87
28588;BME280;15787;49.662;10.162;2023-05-06T09:17:42;99252.91;;;19.76;75.39
28588;BME280;15787;49.662;10.162;2023-05-06T09:20:15;99251.78;;;20.67;76.75
28588;BME280;15787;49.662;10.162;2023-05-06T09:22:50;99249.97;;;19.41;75.17
28588;BME280;15787;49.662;10.162;2023-05-06T09:25:24;99239.66;;;20.32;77.44
28588;BME280;15787;49.662;10.162;2023-05-06T09:28:02;99244.56;;;20.66;76.35
28588;BME280;15787;49.662;10.162;2023-05-06T09:30:37;99250.44;;;20.28;75.48
28588;BME280;15787;49.662;10.162;2023-05-06T09:33:11;99243.94;;;21.17;73.88
28588;BME280;15787;49.662;10.162;2023-05-06T09:35:44;99244.38;;;21.10;70.21
28588;BME280;15787;49.662;10.162;2023-05-06T09:38:18;99245.31;;;21.47;69.83
28588;BME280;15787;49.662;10.162;2023-05-06T09:40:52;99244.47;;;21.01;72.32
28588;BME280;15787;49.662;10.162;2023-05-06T09:43:25;99241.34;;;20.99;70.86
28588;BME280;15787;49.662;10.162;2023-05-06T09:45:58;99244.75;;;20.83;70.09
28588;BME280;15787;49.662;10.162;2023-05-06T09:48:32;99241.22;;;21.28;65.80
28588;BME280;15787;49.662;10.162;2023-05-06T09:51:05;99242.41;;;20.61;68.37
28588;BME280;15787;49.662;10.162;2023-05-06T09:53:40;99246.41;;;20.89;65.48
28588;BME280;15787;49.662;10.162;2023-05-06T09:56:15;99242.22;;;20.85;66.89
28588;BME280;15787;49.662;10.162;2023-05-06T09:58:48;99242.91;;;20.25;70.77
28588;BME280;15787;49.662;10.162;2023-05-06T10:01:23;99234.97;;;20.14;69.03
28588;BME280;15787;49.662;10.162;2023-05-06T10:04:08;99224.59;;;21.01;68.31
28588;BME280;15787;49.662;10.162;2023-05-06T10:06:47;99225.47;;;21.53;69.59
28588;BME280;15787;49.662;10.162;2023-05-06T10:09:22;99223.69;;;21.81;68.52
28588;BME280;15787;49.662;10.162;2023-05-06T10:11:56;99232.78;;;21.13;62.25
28588;BME280;15787;49.662;10.162;2023-05-06T10:14:30;99218.78;;;21.81;63.22
28588;BME280;15787;49.662;10.162;2023-05-06T10:17:06;99226.19;;;21.99;64.41
28588;BME280;15787;49.662;10.162;2023-05-06T10:19:43;99220.84;;;22.12;65.05
28588;BME280;15787;49.662;10.162;2023-05-06T10:22:21;99227.00;;;21.79;64.05
28588;BME280;15787;49.662;10.162;2023-05-06T10:25:04;99225.19;;;21.25;63.92
28588;BME280;15787;49.662;10.162;2023-05-06T10:27:44;99223.47;;;21.33;64.41
28588;BME280;15787;49.662;10.162;2023-05-06T10:30:17;99218.41;;;21.74;63.34
28588;BME280;15787;49.662;10.162;2023-05-06T10:32:51;99206.72;;;21.92;65.34
28588;BME280;15787;49.662;10.162;2023-05-06T10:35:37;99213.88;;;22.50;62.52
28588;BME280;15787;49.662;10.162;2023-05-06T10:38:18;99207.19;;;22.16;62.17
28588;BME280;15787;49.662;10.162;2023-05-06T10:40:55;99210.03;;;22.16;62.02
28588;BME280;15787;49.662;10.162;2023-05-06T10:43:30;99204.78;;;21.26;61.64
28588;BME280;15787;49.662;10.162;2023-05-06T10:46:05;99197.13;;;22.21;61.77
28588;BME280;15787;49.662;10.162;2023-05-06T10:49:15;99203.75;;;22.49;60.71
28588;BME280;15787;49.662;10.162;2023-05-06T10:52:09;99198.09;;;23.08;56.66
28588;BME280;15787;49.662;10.162;2023-05-06T10:54:47;99203.53;;;23.06;55.24
28588;BME280;15787;49.662;10.162;2023-05-06T10:57:22;99201.19;;;21.83;58.75
28588;BME280;15787;49.662;10.162;2023-05-06T10:59:57;99199.56;;;21.45;60.41
28588;BME280;15787;49.662;10.162;2023-05-06T11:02:30;99199.00;;;21.67;59.12
28588;BME280;15787;49.662;10.162;2023-05-06T11:05:04;99209.03;;;22.25;61.47
28588;BME280;15787;49.662;10.162;2023-05-06T11:07:37;99196.28;;;22.15;58.16
28588;BME280;15787;49.662;10.162;2023-05-06T11:10:10;99195.81;;;22.16;55.36
28588;BME280;15787;49.662;10.162;2023-05-06T11:12:48;99198.03;;;22.01;58.53
28588;BME280;15787;49.662;10.162;2023-05-06T11:15:23;99192.66;;;22.09;57.91
28588;BME280;15787;49.662;10.162;2023-05-06T11:17:57;99190.75;;;22.00;59.14
28588;BME280;15787;49.662;10.162;2023-05-06T11:20:30;99187.06;;;21.88;60.00
28588;BME280;15787;49.662;10.162;2023-05-06T11:23:03;99188.06;;;22.22;58.39
28588;BME280;15787;49.662;10.162;2023-05-06T11:25:40;99191.38;;;22.52;61.40
28588;BME280;15787;49.662;10.162;2023-05-06T11:28:14;99188.72;;;22.43;57.79
28588;BME280;15787;49.662;10.162;2023-05-06T11:30:53;99180.84;;;22.21;56.63
28588;BME280;15787;49.662;10.162;2023-05-06T11:33:30;99185.19;;;21.54;58.76
28588;BME280;15787;49.662;10.162;2023-05-06T11:36:04;99186.41;;;22.04;59.26
28588;BME280;15787;49.662;10.162;2023-05-06T11:38:41;99187.22;;;21.79;59.74
28588;BME280;15787;49.662;10.162;2023-05-06T11:41:15;99179.22;;;22.15;57.50
28588;BME280;15787;49.662;10.162;2023-05-06T11:43:52;99181.06;;;22.60;58.87
28588;BME280;15787;49.662;10.162;2023-05-06T11:46:30;99186.44;;;22.47;56.88
28588;BME280;15787;49.662;10.162;2023-05-06T11:49:04;99186.75;;;21.55;56.45
28588;BME280;15787;49.662;10.162;2023-05-06T11:51:37;99192.97;;;22.16;58.19
28588;BME280;15787;49.662;10.162;2023-05-06T11:54:10;99176.09;;;21.76;59.72
28588;BME280;15787;49.662;10.162;2023-05-06T11:56:48;99180.59;;;21.88;59.64
28588;BME280;15787;49.662;10.162;2023-05-06T11:59:28;99179.97;;;22.04;55.50
28588;BME280;15787;49.662;10.162;2023-05-06T12:02:03;99180.66;;;21.93;57.79
28588;BME280;15787;49.662;10.162;2023-05-06T12:04:36;99180.34;;;21.86;57.44
28588;BME280;15787;49.662;10.162;2023-05-06T12:07:12;99176.59;;;22.96;56.77
28588;BME280;15787;49.662;10.162;2023-05-06T12:09:47;99185.00;;;22.68;57.17
28588;BME280;15787;49.662;10.162;2023-05-06T12:12:21;99173.28;;;23.25;55.67
28588;BME280;15787;49.662;10.162;2023-05-06T12:14:57;99179.56;;;23.46;54.93
28588;BME280;15787;49.662;10.162;2023-05-06T12:17:30;99165.06;;;23.82;56.32
28588;BME280;15787;49.662;10.162;2023-05-06T12:20:06;99166.09;;;23.90;54.85
28588;BME280;15787;49.662;10.162;2023-05-06T12:22:43;99169.75;;;23.97;53.00
28588;BME280;15787;49.662;10.162;2023-05-06T12:25:16;99171.03;;;23.62;55.11
28588;BME280;15787;49.662;10.162;2023-05-06T12:27:49;99163.00;;;23.77;55.57
28588;BME280;15787;49.662;10.162;2023-05-06T12:30:31;99167.91;;;23.60;54.86
28588;BME280;15787;49.662;10.162;2023-05-06T12:33:07;99162.59;;;24.59;55.08
28588;BME280;15787;49.662;10.162;2023-05-06T12:35:41;99172.34;;;23.83;55.46
28588;BME280;15787;49.662;10.162;2023-05-06T12:38:15;99167.28;;;23.01;54.93
28588;BME280;15787;49.662;10.162;2023-05-06T12:40:52;99173.59;;;22.62;54.91
28588;BME280;15787;49.662;10.162;2023-05-06T12:43:29;99177.53;;;22.28;54.83
28588;BME280;15787;49.662;10.162;2023-05-06T12:46:05;99167.91;;;22.20;56.16
28588;BME280;15787;49.662;10.162;2023-05-06T12:48:38;99163.09;;;22.37;57.15
28588;BME280;15787;49.662;10.162;2023-05-06T12:51:18;99171.22;;;22.13;56.71
28588;BME280;15787;49.662;10.162;2023-05-06T12:53:51;99161.94;;;23.47;54.35
28588;BME280;15787;49.662;10.162;2023-05-06T12:56:24;99158.84;;;23.89;53.78
28588;BME280;15787;49.662;10.162;2023-05-06T12:58:58;99157.38;;;22.80;54.91
28588;BME280;15787;49.662;10.162;2023-05-06T13:01:33;99165.75;;;22.52;58.89
28588;BME280;15787;49.662;10.162;2023-05-06T13:04:06;99157.25;;;22.15;57.53
28588;BME280;15787;49.662;10.162;2023-05-06T13:06:38;99160.06;;;22.10;57.34
28588;BME280;15787;49.662;10.162;2023-05-06T13:09:11;99150.47;;;22.07;58.08
28588;BME280;15787;49.662;10.162;2023-05-06T13:11:46;99156.88;;;21.65;58.13
28588;BME280;15787;49.662;10.162;2023-05-06T13:14:19;99160.22;;;21.95;58.37
28588;BME280;15787;49.662;10.162;2023-05-06T13:16:53;99153.94;;;22.22;59.18
28588;BME280;15787;49.662;10.162;2023-05-06T13:19:27;99144.41;;;22.79;58.14
28588;BME280;15787;49.662;10.162;2023-05-06T13:22:04;99143.59;;;23.59;56.50
28588;BME280;15787;49.662;10.162;2023-05-06T13:24:36;99149.53;;;23.83;54.45